Time;durP1;ratioP1;P1;durP2;ratioP2;P2;SDS_P1;SDS_P2;PMS_P1;PMS_P2;Temp;Humidity;BMP_temperature;BMP_pressure;BME280_temperature;BME280_humidity;BME280_pressure;Samples;Min_cycle;Max_cycle;Signal;HPM_P1;HPM_P2
2022/01/02 00:02:05;;;;;;;3.78;3.47;;;;;;;-9.37;78.27;101443.72;5072036;28;20423;-61
2022/01/02 00:05:01;;;;;;;4.70;3.97;;;;;;;-9.21;78.29;101468.47;5071950;28;20044;-56
2022/01/02 00:08:04;;;;;;;5.15;3.38;;;;;;;-9.18;78.01;101470.16;5070539;28;20040;-55
2022/01/02 00:10:51;;;;;;;5.28;3.70;;;;;;;-9.24;78.37;101462.50;5071653;28;20063;-53
2022/01/02 00:13:41;;;;;;;4.32;3.40;;;;;;;-9.26;78.70;101454.75;5071322;28;20028;-55
2022/01/02 00:16:27;;;;;;;6.15;4.18;;;;;;;-9.25;78.75;101469.38;5072009;28;20051;-57
2022/01/02 00:19:27;;;;;;;3.88;3.47;;;;;;;-9.33;78.62;101449.69;5075069;28;20447;-61
2022/01/02 00:22:15;;;;;;;6.00;3.20;;;;;;;-9.24;78.31;101471.09;5076114;28;20502;-56
2022/01/02 00:25:00;;;;;;;3.30;3.10;;;;;;;-10.03;78.39;101350.91;5074313;28;20163;-58
2022/01/02 00:27:44;;;;;;;4.20;3.83;;;;;;;-9.27;78.29;101480.56;5074620;28;20039;-55
2022/01/02 00:30:29;;;;;;;4.07;3.67;;;;;;;-9.28;78.53;101482.28;5075150;28;20036;-57
2022/01/02 00:33:14;;;;;;;5.03;3.63;;;;;;;-9.39;78.40;101466.13;5075841;28;20039;-54
2022/01/02 00:35:58;;;;;;;4.95;3.80;;;;;;;-9.38;78.31;101458.34;5075103;28;20102;-59
2022/01/02 00:38:42;;;;;;;4.50;4.20;;;;;;;-9.39;78.04;101466.13;5075104;28;20067;-61
2022/01/02 00:41:47;;;;;;;4.60;4.03;;;;;;;-9.38;78.36;101467.81;5074679;28;20495;-55
2022/01/02 00:44:58;;;;;;;4.45;4.05;;;;;;;-9.49;78.19;101456.78;5074239;28;20634;-56
2022/01/02 00:48:22;;;;;;;4.82;3.40;;;;;;;-9.35;78.55;101472.09;5074393;28;20428;-53
2022/01/02 00:51:16;;;;;;;4.13;3.83;;;;;;;-9.42;78.81;101471.31;5074623;28;20079;-61
2022/01/02 00:54:01;;;;;;;4.25;3.75;;;;;;;-9.49;78.61;101469.69;5074544;28;20039;-59
2022/01/02 00:56:46;;;;;;;3.72;3.42;;;;;;;-9.45;78.62;101486.81;5074302;28;20076;-59
2022/01/02 00:59:44;;;;;;;4.95;4.35;;;;;;;-9.57;78.92;101456.00;5074646;28;20131;-56
2022/01/02 01:02:33;;;;;;;5.55;3.72;;;;;;;-9.42;78.84;101474.75;5075251;28;20093;-59
2022/01/02 01:05:31;;;;;;;5.28;3.40;;;;;;;-9.38;79.12;101483.28;5074755;28;20079;-57
2022/01/02 01:08:15;;;;;;;5.18;3.72;;;;;;;-9.46;78.82;101465.34;5074531;28;20051;-60
2022/01/02 01:11:05;;;;;;;4.45;4.13;;;;;;;-9.41;78.93;101478.19;5074680;28;20093;-61
2022/01/02 01:13:49;;;;;;;;;;;;;;;-9.34;78.98;101484.09;5075163;28;20438;-57
2022/01/02 01:16:33;;;;;;;4.63;4.32;;;;;;;-9.33;78.84;101490.97;5074799;28;19923;-55
2022/01/02 01:19:17;;;;;;;6.43;3.60;;;;;;;-9.93;78.44;101388.56;5074338;28;20089;-60
2022/01/02 01:22:01;;;;;;;5.63;4.13;;;;;;;-9.37;78.77;101488.44;5075593;28;20050;-58
2022/01/02 01:24:45;;;;;;;3.88;3.58;;;;;;;-9.38;79.12;101498.75;5076251;28;20505;-55
2022/01/02 01:27:29;;;;;;;3.65;3.35;;;;;;;-9.41;79.12;101503.97;5075001;28;20047;-57
2022/01/02 01:30:15;;;;;;;6.13;3.88;;;;;;;-9.46;79.37;101505.75;5073945;28;20035;-54
2022/01/02 01:32:59;;;;;;;4.90;4.53;;;;;;;-9.56;79.33;101483.50;5074731;28;20089;-59
2022/01/02 01:35:43;;;;;;;3.60;3.30;;;;;;;-9.53;79.39;101504.13;5074055;28;20043;-57
2022/01/02 01:38:27;;;;;;;4.05;3.65;;;;;;;-9.46;79.41;101510.91;5074024;28;20102;-59
2022/01/02 01:41:37;;;;;;;5.28;4.60;;;;;;;-10.09;79.14;101405.97;5075279;28;20051;-54
2022/01/02 01:44:28;;;;;;;9.50;3.88;;;;;;;-9.66;79.04;101474.19;5075510;28;20151;-54
2022/01/02 01:47:17;;;;;;;3.90;3.60;;;;;;;-9.42;78.91;101508.28;5073203;28;20112;-59
2022/01/02 01:50:02;;;;;;;3.97;3.70;;;;;;;-9.48;78.97;101499.75;5073333;28;20043;-52
2022/01/02 01:52:46;;;;;;;4.55;3.85;;;;;;;-9.54;78.86;101499.81;5074216;28;20039;-57
2022/01/02 01:55:32;;;;;;;5.35;3.53;;;;;;;-9.73;79.32;101469.09;5073201;28;20439;-58
2022/01/02 01:58:16;;;;;;;5.63;4.35;;;;;;;-9.78;79.21;101465.72;5073084;28;20442;-58
2022/01/02 02:01:01;;;;;;;5.47;3.83;;;;;;;-9.50;78.96;101523.00;5073064;28;20507;-59
2022/01/02 02:03:45;;;;;;;4.32;3.88;;;;;;;-9.48;78.97;101522.97;5072682;28;20458;-57
2022/01/02 02:06:29;;;;;;;4.22;3.88;;;;;;;-9.63;79.13;101503.34;5073486;28;20182;-52
2022/01/02 02:09:13;;;;;;;4.40;4.00;;;;;;;-9.51;78.62;101520.44;5073233;28;20549;-54
2022/01/02 02:11:59;;;;;;;3.92;3.58;;;;;;;-9.53;78.78;101520.44;5072779;28;20060;-55
2022/01/02 02:14:43;;;;;;;4.00;3.65;;;;;;;-9.58;79.15;101524.78;5072974;28;20101;-58
2022/01/02 02:17:28;;;;;;;3.90;3.60;;;;;;;-9.61;78.92;101518.81;5072900;28;20151;-58
2022/01/02 02:20:15;;;;;;;5.82;3.47;;;;;;;-9.66;78.91;101518.00;5072617;28;20410;-56
2022/01/02 02:23:01;;;;;;;5.00;3.75;;;;;;;-9.79;78.54;101523.31;5073263;28;20098;-55
2022/01/02 02:25:45;;;;;;;4.05;3.65;;;;;;;-9.89;78.82;101511.38;5072643;28;20043;-55
2022/01/02 02:28:29;;;;;;;4.10;3.70;;;;;;;-9.81;78.94;101525.03;5072323;28;20108;-60
2022/01/02 02:31:13;;;;;;;3.90;3.53;;;;;;;-9.99;78.96;101517.50;5073039;28;20083;-61
2022/01/02 02:33:57;;;;;;;9.77;3.67;;;;;;;-10.00;79.08;101523.50;5072604;28;20098;-57
2022/01/02 02:36:40;;;;;;;3.47;3.28;;;;;;;-9.97;79.02;101532.94;5073107;28;20054;-56
2022/01/02 02:39:24;;;;;;;3.00;2.80;;;;;;;-9.95;79.20;101546.66;5072011;28;20465;-57
2022/01/02 02:42:21;;;;;;;5.32;3.63;;;;;;;-10.11;79.16;101515.03;5072193;28;20509;-58
2022/01/02 02:49:02;;;;;;;4.40;3.50;;;;;;;-10.01;78.78;101539.84;5071969;28;20134;-59
2022/01/02 02:54:27;;;;;;;5.32;4.80;;;;;;;-9.98;78.88;101552.69;5072261;28;20055;-52
2022/01/02 02:57:13;;;;;;;4.78;3.83;;;;;;;-10.03;78.57;101539.84;5072486;28;20141;-55
2022/01/02 02:59:57;;;;;;;5.47;4.47;;;;;;;-10.06;78.85;101539.88;5071975;28;20044;-55
2022/01/02 03:02:40;;;;;;;4.38;4.00;;;;;;;-10.05;78.80;101546.75;5071845;28;20081;-58
2022/01/02 03:05:24;;;;;;;4.28;3.88;;;;;;;-10.09;79.25;101545.06;5072197;28;20553;-59
2022/01/02 03:08:08;;;;;;;5.93;4.85;;;;;;;-10.19;78.65;101521.97;5072347;28;20038;-59
2022/01/02 03:10:52;;;;;;;4.60;4.20;;;;;;;-10.16;78.66;101529.66;5072279;28;20048;-59
2022/01/02 03:13:36;;;;;;;6.47;4.20;;;;;;;-10.06;78.86;101531.31;5072087;28;20121;-60
2022/01/02 03:16:20;;;;;;;4.70;4.30;;;;;;;-10.10;78.83;101516.75;5071898;28;20048;-59
2022/01/02 03:19:05;;;;;;;5.07;4.15;;;;;;;-10.08;78.86;101521.00;5071945;28;20040;-59
2022/01/02 03:21:49;;;;;;;4.60;4.20;;;;;;;-10.14;78.69;101509.88;5072250;28;20559;-62
2022/01/02 03:24:33;;;;;;;5.05;3.70;;;;;;;-10.12;78.75;101514.19;5071947;28;20078;-61
2022/01/02 03:27:16;;;;;;;6.68;4.85;;;;;;;-10.40;79.41;101467.25;5072090;28;20052;-59
2022/01/02 03:30:02;;;;;;;9.05;4.53;;;;;;;-10.20;79.46;101494.53;5072069;28;20116;-56
2022/01/02 03:32:46;;;;;;;8.18;4.53;;;;;;;-10.13;79.16;101509.00;5071870;28;20514;-58
2022/01/02 03:35:30;;;;;;;6.25;4.30;;;;;;;-10.17;78.84;101491.88;5072012;28;20056;-58
2022/01/02 03:38:14;;;;;;;5.80;3.90;;;;;;;-10.09;78.78;101508.16;5072082;28;20043;-59
2022/01/02 03:40:59;;;;;;;5.25;4.75;;;;;;;-10.14;78.94;101515.88;5072221;28;20070;-58
2022/01/02 03:43:43;;;;;;;6.90;4.32;;;;;;;-10.10;78.90;101524.47;5071329;28;20127;-58
2022/01/02 03:46:27;;;;;;;5.18;3.75;;;;;;;-10.16;78.94;101509.03;5071861;28;20059;-57
2022/01/02 03:49:14;;;;;;;4.50;3.75;;;;;;;-10.10;78.58;101533.06;5071825;28;20098;-59
2022/01/02 03:51:58;;;;;;;5.22;4.70;;;;;;;-10.24;78.67;101509.16;5073426;28;20527;-60
2022/01/02 03:54:42;;;;;;;4.18;3.72;;;;;;;-10.17;78.88;101527.94;5075664;28;20046;-57
2022/01/02 03:57:26;;;;;;;5.53;3.83;;;;;;;-10.19;78.92;101529.69;5075624;28;20107;-60
2022/01/02 04:00:13;;;;;;;6.85;4.40;;;;;;;-10.26;79.11;101512.63;5074383;28;20040;-60
2022/01/02 04:02:57;;;;;;;4.80;4.40;;;;;;;-10.35;78.91;101506.69;5075183;28;20127;-56
2022/01/02 04:05:43;;;;;;;4.50;4.10;;;;;;;-10.26;79.01;101520.34;5075372;28;20042;-54
2022/01/02 04:08:27;;;;;;;4.65;4.25;;;;;;;-10.40;78.91;101507.59;5075509;28;20047;-57
2022/01/02 04:11:11;;;;;;;4.80;3.50;;;;;;;-10.36;78.92;101523.00;5075002;28;20083;-57
2022/01/02 04:13:55;;;;;;;7.97;4.18;;;;;;;-10.42;79.54;101523.03;5074942;28;20043;-60
2022/01/02 04:16:39;;;;;;;4.80;3.95;;;;;;;-10.44;79.67;101535.06;5075035;28;20533;-58
2022/01/02 04:19:23;;;;;;;4.07;3.78;;;;;;;-10.48;79.70;101540.25;5075446;28;20063;-57
2022/01/02 04:22:07;;;;;;;4.57;4.18;;;;;;;-10.52;79.71;101518.81;5075969;28;20055;-56
2022/01/02 04:24:51;;;;;;;5.40;4.50;;;;;;;-10.35;79.50;101536.72;5075168;28;20093;-60
2022/01/02 04:27:35;;;;;;;3.70;3.40;;;;;;;-10.36;79.20;101525.56;5074731;28;20047;-56
2022/01/02 04:30:19;;;;;;;6.28;4.43;;;;;;;-10.26;79.59;101551.25;5075109;28;20051;-57
2022/01/02 04:33:03;;;;;;;3.70;3.40;;;;;;;-10.23;79.04;101543.50;5074654;28;20062;-56
2022/01/02 04:35:47;;;;;;;5.57;4.40;;;;;;;-10.31;78.77;101528.09;5074686;28;20106;-58
2022/01/02 04:38:31;;;;;;;5.40;3.75;;;;;;;-10.22;78.92;101548.63;5074818;28;20039;-60
2022/01/02 04:41:15;;;;;;;3.55;3.25;;;;;;;-10.23;78.67;101541.78;5074603;28;20043;-59
2022/01/02 04:43:59;;;;;;;4.25;3.60;;;;;;;-10.38;78.51;101529.88;5074300;28;20418;-58
2022/01/02 04:46:43;;;;;;;5.45;4.25;;;;;;;-10.40;77.92;101528.19;5074161;28;20113;-57
2022/01/02 04:49:30;;;;;;;4.32;3.92;;;;;;;-10.29;78.50;101546.13;5074806;28;20098;-59
2022/01/02 04:52:14;;;;;;;6.68;3.53;;;;;;;-10.54;78.55;101523.13;5074371;28;20143;-56
2022/01/02 04:54:57;;;;;;;3.65;3.35;;;;;;;-10.46;78.38;101538.50;5074349;28;20086;-57
2022/01/02 04:57:41;;;;;;;4.43;4.00;;;;;;;-10.46;78.32;101546.25;5074297;28;20518;-58
2022/01/02 05:00:25;;;;;;;4.93;3.60;;;;;;;-10.42;78.40;101561.66;5073945;28;20502;-57
2022/01/02 05:03:09;;;;;;;4.65;4.25;;;;;;;-10.58;78.50;101549.75;5073190;28;20044;-56
2022/01/02 05:05:53;;;;;;;5.22;3.67;;;;;;;-10.56;77.97;101550.59;5073873;28;20032;-52
2022/01/02 05:08:37;;;;;;;5.55;4.22;;;;;;;-10.51;78.61;101558.28;5074030;28;20047;-59
2022/01/02 05:11:21;;;;;;;8.38;4.63;;;;;;;-10.60;78.61;101543.78;5073836;28;20079;-59
2022/01/02 05:14:05;;;;;;;3.72;3.40;;;;;;;-10.89;79.12;101499.38;5074213;28;20063;-57
2022/01/02 05:16:49;;;;;;;4.68;3.90;;;;;;;-10.58;79.11;101533.47;5074170;28;20044;-60
2022/01/02 05:19:33;;;;;;;5.55;4.78;;;;;;;-10.60;78.92;101530.06;5074142;28;20396;-53
2022/01/02 05:22:17;;;;;;;5.45;4.25;;;;;;;-10.65;79.11;101506.94;5074102;28;20055;-58
2022/01/02 05:25:01;;;;;;;3.63;3.33;;;;;;;-10.58;79.37;101505.16;5073884;28;20594;-56
2022/01/02 05:27:45;;;;;;;4.38;3.65;;;;;;;-10.50;79.36;101506.78;5073578;28;20090;-54
2022/01/02 05:30:29;;;;;;;10.40;4.60;;;;;;;-10.53;79.20;101488.81;5072435;28;20538;-58
2022/01/02 05:33:13;;;;;;;4.22;3.45;;;;;;;-10.39;79.25;101499.84;5073717;28;20111;-61
2022/01/02 05:35:57;;;;;;;4.18;3.83;;;;;;;-10.51;78.60;101479.34;5073826;28;20043;-58
2022/01/02 05:38:41;;;;;;;7.20;3.78;;;;;;;-10.40;79.13;101490.41;5075737;28;20408;-59
2022/01/02 05:41:30;;;;;;;5.03;4.53;;;;;;;-10.34;79.14;101487.78;5075703;28;20074;-58
2022/01/02 05:44:15;;;;;;;4.43;4.05;;;;;;;-10.33;79.15;101481.78;5072570;28;20097;-58
2022/01/02 05:47:00;;;;;;;4.60;4.20;;;;;;;-10.25;78.53;101488.56;5073423;28;20151;-60
2022/01/02 05:49:45;;;;;;;6.10;4.22;;;;;;;-10.33;78.90;101483.50;5073326;28;20139;-60
2022/01/02 05:52:31;;;;;;;4.35;3.70;;;;;;;-10.27;79.03;101482.56;5073497;28;20127;-57
2022/01/02 05:55:16;;;;;;;7.78;4.90;;;;;;;-10.24;78.46;101475.66;5073575;28;20059;-59
2022/01/02 05:58:00;;;;;;;4.53;3.78;;;;;;;-10.20;78.74;101468.78;5074840;28;20533;-56
2022/01/02 06:00:44;;;;;;;5.00;4.45;;;;;;;-10.27;78.61;101443.94;5074759;28;20040;-54
2022/01/02 06:03:28;;;;;;;4.88;4.15;;;;;;;-9.97;78.11;101476.25;5073966;28;20051;-60
2022/01/02 06:06:21;;;;;;;4.90;4.15;;;;;;;-9.86;78.82;101479.53;5072285;28;20078;-61
2022/01/02 06:09:05;;;;;;;5.72;4.15;;;;;;;-9.93;78.18;101460.72;5073359;28;20055;-60
2022/01/02 06:11:49;;;;;;;5.22;3.83;;;;;;;-9.72;78.18;101486.28;5072891;28;20618;-65
2022/01/02 06:14:32;;;;;;;10.35;5.45;;;;;;;-9.74;78.00;101479.44;5072569;28;20055;-57
2022/01/02 06:17:16;;;;;;;13.32;5.97;;;;;;;-10.00;77.66;101446.22;5072837;28;20043;-56
2022/01/02 06:20:00;;;;;;;4.32;4.00;;;;;;;-9.81;77.62;101470.06;5072768;28;20090;-57
2022/01/02 06:22:44;;;;;;;4.85;4.43;;;;;;;-9.70;77.50;101470.78;5072766;28;20055;-57
2022/01/02 06:25:28;;;;;;;4.80;4.35;;;;;;;-9.57;77.33;101479.22;5072633;28;20082;-59
2022/01/02 06:28:13;;;;;;;6.07;4.93;;;;;;;-9.51;77.32;101485.19;5072621;28;20103;-59
2022/01/02 06:30:57;;;;;;;6.10;5.25;;;;;;;-9.56;76.88;101468.03;5072252;28;20059;-55
2022/01/02 06:33:40;;;;;;;7.20;5.18;;;;;;;-9.44;76.78;101478.22;5072442;28;20499;-54
2022/01/02 06:36:24;;;;;;;7.47;6.05;;;;;;;-9.46;76.41;101474.81;5072107;28;20046;-57
2022/01/02 06:39:08;;;;;;;6.82;5.35;;;;;;;-9.46;76.88;101465.34;5072831;28;20091;-61
2022/01/02 06:41:52;;;;;;;7.97;6.15;;;;;;;-9.44;76.88;101455.00;5072238;28;20113;-55
2022/01/02 06:44:37;;;;;;;7.38;5.70;;;;;;;-9.59;76.72;101421.66;5072893;28;20124;-61
2022/01/02 06:47:23;;;;;;;9.65;7.15;;;;;;;-9.32;76.52;101462.56;5072367;28;20060;-53
2022/01/02 06:50:08;;;;;;;8.25;5.70;;;;;;;-9.39;75.81;101445.47;5071996;28;20464;-57
2022/01/02 06:52:52;;;;;;;6.82;5.50;;;;;;;-9.37;76.08;101460.06;5072297;28;20089;-60
2022/01/02 06:55:36;;;;;;;7.75;5.75;;;;;;;-9.28;76.17;101455.66;5072261;28;20395;-59
2022/01/02 06:58:20;;;;;;;6.47;5.57;;;;;;;-9.29;75.79;101459.94;5072371;28;20043;-55
2022/01/02 07:01:05;;;;;;;5.65;4.78;;;;;;;-9.15;75.95;101478.69;5072221;28;20047;-59
2022/01/02 07:03:49;;;;;;;6.60;5.85;;;;;;;-9.11;76.17;101467.44;5072234;28;20039;-59
2022/01/02 07:06:33;;;;;;;7.40;4.93;;;;;;;-9.11;76.30;101457.13;5072157;28;20124;-57
2022/01/02 07:09:16;;;;;;;8.55;5.07;;;;;;;-8.99;76.20;101468.13;5072354;28;20047;-55
2022/01/02 07:12:01;;;;;;;6.70;4.78;;;;;;;-8.89;75.44;101468.00;5070858;28;20563;-57
2022/01/02 07:14:45;;;;;;;4.80;4.30;;;;;;;-8.94;75.13;101456.03;5071838;28;20376;-57
2022/01/02 07:17:29;;;;;;;7.93;5.10;;;;;;;-8.90;74.80;101461.13;5071761;28;20515;-55
2022/01/02 07:20:13;;;;;;;7.80;5.32;;;;;;;-8.96;74.88;101435.44;5071970;28;20040;-57
2022/01/02 07:22:57;;;;;;;5.47;4.95;;;;;;;-8.84;74.95;101452.44;5072367;28;20096;-60
2022/01/02 07:25:41;;;;;;;5.60;4.88;;;;;;;-8.83;74.76;101443.81;5072355;28;20040;-58
2022/01/02 07:28:25;;;;;;;4.90;4.32;;;;;;;-8.91;74.94;101420.72;5075730;28;20081;-56
2022/01/02 07:31:09;;;;;;;7.65;4.95;;;;;;;-8.68;75.29;101430.66;5075702;28;20482;-60
2022/01/02 07:33:53;;;;;;;5.65;4.90;;;;;;;-8.92;74.83;101385.47;5075633;28;20427;-61
2022/01/02 07:36:39;;;;;;;6.32;5.30;;;;;;;-8.48;74.03;101454.44;5076113;28;20404;-56
2022/01/02 07:39:23;;;;;;;6.53;5.60;;;;;;;-8.55;73.92;101442.50;5076563;28;20127;-57
2022/01/02 07:42:07;;;;;;;8.80;5.00;;;;;;;-8.38;74.19;101457.72;5075759;28;20553;-60
2022/01/02 07:44:51;;;;;;;6.75;4.72;;;;;;;-8.35;74.11;101449.94;5075871;28;20443;-55
2022/01/02 07:47:38;;;;;;;5.10;4.35;;;;;;;-8.29;74.38;101461.84;5075234;28;20539;-58
2022/01/02 07:50:23;;;;;;;8.63;4.95;;;;;;;-8.30;74.27;101444.63;5075711;28;20193;-58
2022/01/02 07:53:07;;;;;;;8.13;4.95;;;;;;;-8.29;73.79;101418.78;5075707;28;20077;-56
2022/01/02 07:55:51;;;;;;;5.57;4.78;;;;;;;-8.15;73.73;101436.59;5075640;28;20047;-57
2022/01/02 07:58:35;;;;;;;7.00;5.53;;;;;;;-8.08;73.08;101427.88;5075581;28;20090;-59
2022/01/02 08:01:19;;;;;;;10.07;5.30;;;;;;;-7.97;73.29;101427.66;5075279;28;20035;-59
2022/01/02 08:04:03;;;;;;;8.82;6.07;;;;;;;-7.91;73.05;101425.81;5075132;28;20490;-54
2022/01/02 08:06:47;;;;;;;6.03;4.70;;;;;;;-8.03;73.42;101405.38;5075058;28;20040;-56
2022/01/02 08:09:31;;;;;;;5.22;4.65;;;;;;;-7.90;74.04;101417.16;5075591;28;20047;-57
2022/01/02 08:12:15;;;;;;;6.30;5.80;;;;;;;-7.72;72.95;101441.81;5075172;28;20098;-57
2022/01/02 08:14:59;;;;;;;9.10;5.68;;;;;;;-7.67;73.29;101433.97;5075146;28;20048;-57
2022/01/02 08:17:42;;;;;;;8.73;6.10;;;;;;;-7.90;73.23;101382.72;5074969;28;20418;-55
2022/01/02 08:20:27;;;;;;;7.63;6.85;;;;;;;-7.82;72.67;101388.56;5074787;28;20039;-60
2022/01/02 08:23:12;;;;;;;7.22;5.13;;;;;;;-7.50;72.41;101439.66;5075231;28;20086;-61
2022/01/02 08:25:57;;;;;;;6.47;5.30;;;;;;;-7.51;72.27;101435.38;5075400;28;20185;-61
2022/01/02 08:28:41;;;;;;;5.35;4.85;;;;;;;-7.55;71.92;101434.56;5074636;28;20158;-55
2022/01/02 08:31:25;;;;;;;6.50;4.15;;;;;;;-7.56;71.39;101429.41;5074827;28;20093;-60
2022/01/02 08:34:09;;;;;;;6.45;4.28;;;;;;;-7.60;71.23;101425.19;5075641;28;20075;-60
2022/01/02 08:36:53;;;;;;;5.13;4.72;;;;;;;-7.68;70.83;101401.22;5075008;28;20075;-59
2022/01/02 08:39:37;;;;;;;6.68;5.88;;;;;;;-7.48;71.24;101439.63;5074886;28;20067;-58
2022/01/02 08:42:21;;;;;;;8.80;5.18;;;;;;;-7.52;71.12;101433.63;5074862;28;20105;-60
2022/01/02 08:45:07;;;;;;;10.90;5.72;;;;;;;-7.41;71.44;101446.38;5074403;28;20153;-60
2022/01/02 08:47:58;;;;;;;10.82;4.80;;;;;;;-7.46;71.54;101423.19;5074142;28;20055;-57
2022/01/02 08:50:44;;;;;;;12.10;8.30;;;;;;;-7.64;71.61;101406.31;5074166;28;20135;-58
2022/01/02 08:53:28;;;;;;;5.63;5.13;;;;;;;-7.52;72.08;101407.75;5074540;28;20557;-60
2022/01/02 08:56:13;;;;;;;7.00;4.90;;;;;;;-7.46;71.71;101414.56;5073234;28;20039;-57
2022/01/02 08:58:58;;;;;;;5.18;4.32;;;;;;;-7.41;71.82;101418.75;5074421;28;20048;-61
2022/01/02 09:01:41;;;;;;;6.28;4.78;;;;;;;-7.35;72.22;101410.84;5073926;28;20162;-61
2022/01/02 09:04:25;;;;;;;7.25;5.03;;;;;;;-7.43;71.68;101397.25;5074365;28;20494;-59
2022/01/02 09:07:09;;;;;;;9.00;4.57;;;;;;;-7.45;71.95;101391.25;5074121;28;20090;-63
2022/01/02 09:09:53;;;;;;;13.38;5.80;;;;;;;-7.39;72.03;101391.13;5074735;28;20055;-59
2022/01/02 09:12:37;;;;;;;6.55;4.72;;;;;;;-7.30;72.23;101388.31;5073946;28;20086;-56
2022/01/02 09:15:21;;;;;;;6.40;5.25;;;;;;;-7.42;71.68;101336.84;5074150;28;20458;-59
2022/01/02 09:18:05;;;;;;;5.63;4.30;;;;;;;-7.19;72.21;101373.41;5074071;28;20047;-59
2022/01/02 09:20:49;;;;;;;4.53;3.80;;;;;;;-7.27;71.61;101357.19;5073912;28;20407;-55
2022/01/02 09:23:33;;;;;;;7.82;4.22;;;;;;;-7.17;71.69;101378.56;5074525;28;20066;-59
2022/01/02 09:26:17;;;;;;;5.45;3.83;;;;;;;-7.06;71.57;101380.88;5074068;28;20498;-61
2022/01/02 09:29:01;;;;;;;11.48;8.77;;;;;;;-6.97;71.70;101391.00;5073913;28;20047;-60
2022/01/02 09:31:45;;;;;;;10.85;7.47;;;;;;;-7.01;71.85;101389.38;5074011;28;20091;-58
2022/01/02 09:34:29;;;;;;;5.93;5.03;;;;;;;-6.89;71.69;101389.09;5073779;28;20047;-61
2022/01/02 09:37:13;;;;;;;5.60;4.43;;;;;;;-6.88;72.23;101396.00;5073739;28;20514;-57
2022/01/02 09:39:57;;;;;;;12.15;4.60;;;;;;;-6.98;72.60;101361.66;5073737;28;20043;-57
2022/01/02 09:42:41;;;;;;;5.20;4.50;;;;;;;-6.93;72.54;101364.19;5073573;28;20083;-57
2022/01/02 09:45:28;;;;;;;14.55;6.85;;;;;;;-6.91;73.56;101359.81;5073451;28;20058;-59
2022/01/02 09:48:12;;;;;;;10.60;5.72;;;;;;;-6.87;74.27;101366.63;5073324;28;20144;-54
2022/01/02 09:50:58;;;;;;;5.72;4.43;;;;;;;-6.81;74.16;101382.00;5074792;28;20090;-58
2022/01/02 09:53:45;;;;;;;5.35;4.85;;;;;;;-6.84;73.75;101370.88;5074688;28;20132;-56
2022/01/02 09:56:12;;;;;;;7.22;4.38;;;;;;;-6.84;74.06;101366.53;5075389;28;20556;-55
2022/01/02 09:58:40;;;;;;;6.60;4.30;;;;;;;-6.94;74.72;101339.13;5074061;28;20182;-55
2022/01/02 10:01:06;;;;;;;6.43;5.45;;;;;;;-6.74;74.51;101373.19;5072836;28;20040;-59
2022/01/02 10:03:45;;;;;;;7.97;5.07;;;;;;;-6.84;74.84;101356.19;5073012;28;20393;-59
2022/01/02 10:06:12;;;;;;;6.05;4.28;;;;;;;-6.75;75.59;101363.72;5072830;28;20139;-59
2022/01/02 10:08:37;;;;;;;8.48;4.28;;;;;;;-6.62;75.08;101362.53;5072671;28;20048;-56
2022/01/02 10:11:09;;;;;;;6.47;4.80;;;;;;;-6.54;75.20;101364.06;5072537;28;20487;-59
2022/01/02 10:13:50;;;;;;;9.85;6.70;;;;;;;-6.62;75.45;101339.22;5074527;28;20036;-57
2022/01/02 10:16:22;;;;;;;6.70;4.95;;;;;;;-6.48;75.29;101358.72;5074650;28;20044;-55
2022/01/02 10:18:51;;;;;;;6.22;5.32;;;;;;;-6.71;75.33;101308.34;5073767;28;20033;-61
2022/01/02 10:21:33;;;;;;;;;;;;;;;-6.35;74.96;101347.16;5072756;28;20044;-60
2022/01/02 10:24:28;;;;;;;8.18;5.18;;;;;;;-6.32;75.07;101339.28;5073085;28;19916;-61
2022/01/02 10:27:12;;;;;;;6.03;5.15;;;;;;;-6.39;75.02;101323.03;5072467;28;20036;-59
2022/01/02 10:29:51;;;;;;;6.30;4.68;;;;;;;-6.31;74.83;101326.28;5072206;28;20494;-55
2022/01/02 10:32:33;;;;;;;16.88;9.43;;;;;;;-6.19;74.50;101330.25;5072102;28;20487;-62
2022/01/02 10:35:18;;;;;;;6.38;4.70;;;;;;;-6.12;75.00;101326.59;5072351;28;20111;-57
2022/01/02 10:37:53;;;;;;;8.35;5.20;;;;;;;-6.16;74.53;101312.03;5072247;28;20143;-56
2022/01/02 10:40:26;;;;;;;7.97;5.15;;;;;;;-6.05;73.78;101324.72;5072549;28;20036;-59
2022/01/02 10:42:51;;;;;;;7.35;5.05;;;;;;;-6.10;74.74;101306.66;5072228;28;20123;-57
2022/01/02 10:45:48;;;;;;;7.37;4.97;;;;;;;-5.99;74.25;101302.03;5072006;28;20032;-58
2022/01/02 10:48:18;;;;;;;8.60;6.70;;;;;;;-5.95;74.50;101288.09;5070796;28;20199;-57
2022/01/02 10:51:08;;;;;;;6.18;5.38;;;;;;;-5.74;74.15;101312.50;5071579;28;20118;-54
2022/01/02 10:53:37;;;;;;;7.18;5.00;;;;;;;-5.64;74.21;101308.72;5072456;28;20515;-59
2022/01/02 10:56:03;;;;;;;;;;;;;;;-5.50;73.34;101308.28;5073044;28;20113;-52
2022/01/02 10:58:30;;;;;;;9.45;5.32;;;;;;;-5.53;73.75;101295.41;5071853;28;19945;-56
2022/01/02 11:01:02;;;;;;;7.32;4.50;;;;;;;-5.38;73.26;101320.06;5070968;28;20047;-59
2022/01/02 11:03:29;;;;;;;16.13;8.25;;;;;;;-5.41;73.03;101295.06;5072065;28;20029;-63
2022/01/02 11:06:01;;;;;;;7.65;5.10;;;;;;;-5.39;73.00;101290.66;5071985;28;20068;-61
2022/01/02 11:08:30;;;;;;;6.30;4.18;;;;;;;-5.39;73.29;101295.00;5071932;28;20503;-58
2022/01/02 11:10:56;;;;;;;6.78;4.65;;;;;;;-5.51;73.35;101275.44;5072048;28;20036;-57
2022/01/02 11:13:21;;;;;;;6.43;4.43;;;;;;;-5.51;73.84;101272.84;5071411;28;20411;-57
2022/01/02 11:15:47;;;;;;;6.97;4.43;;;;;;;-5.52;73.60;101276.34;5069808;28;20922;-57
2022/01/02 11:18:14;;;;;;;6.17;4.40;;;;;;;-5.90;73.98;101206.69;5071583;28;20029;-64
2022/01/02 11:20:41;;;;;;;5.90;4.45;;;;;;;-5.60;73.75;101262.78;5071555;28;20036;-56
2022/01/02 11:23:06;;;;;;;5.07;4.00;;;;;;;-5.63;74.54;101261.13;5071468;28;20041;-59
2022/01/02 11:25:51;;;;;;;7.73;4.50;;;;;;;-5.77;74.80;101252.94;5071732;28;20032;-55
2022/01/02 11:28:32;;;;;;;8.73;4.55;;;;;;;-5.86;75.34;101240.22;5071178;28;20040;-57
2022/01/02 11:30:58;;;;;;;5.13;3.92;;;;;;;-5.81;75.56;101253.91;5072476;28;20088;-57
2022/01/02 11:33:35;;;;;;;6.57;5.03;;;;;;;-6.21;75.39;101191.22;5072676;28;20395;-58
2022/01/02 11:36:23;;;;;;;7.22;5.25;;;;;;;-6.11;75.69;101203.84;5071193;28;20044;-60
2022/01/02 11:39:15;;;;;;;6.25;4.10;;;;;;;-5.84;75.38;101238.44;5070473;28;20040;-57
2022/01/02 11:41:44;;;;;;;6.68;4.75;;;;;;;-5.92;75.55;101224.88;5068577;28;20149;-61
2022/01/02 11:44:10;;;;;;;6.18;4.35;;;;;;;-5.88;75.60;101230.78;5071437;28;20044;-59
2022/01/02 11:46:38;;;;;;;5.57;4.65;;;;;;;-6.09;76.24;101196.03;5071361;28;20052;-60
2022/01/02 11:49:05;;;;;;;7.05;4.22;;;;;;;-5.83;75.87;101237.53;5069997;28;20090;-54
2022/01/02 11:51:51;;;;;;;8.73;4.70;;;;;;;-5.79;76.05;101230.50;5071411;28;20036;-62
2022/01/02 11:54:29;;;;;;;6.50;5.10;;;;;;;-5.73;75.88;101235.53;5071376;28;20052;-54
2022/01/02 11:56:55;;;;;;;9.38;5.70;;;;;;;-5.77;75.65;101215.78;5071231;28;20137;-58
2022/01/02 11:59:38;;;;;;;10.37;8.03;;;;;;;-5.76;76.58;101194.13;5071290;28;20464;-55
2022/01/02 12:02:30;;;;;;;18.20;7.57;;;;;;;-5.56;75.84;101228.03;5071458;28;20182;-61
2022/01/02 12:04:59;;;;;;;16.27;8.23;;;;;;;-5.50;76.75;101212.25;5070761;28;20397;-59
2022/01/02 12:07:33;;;;;;;19.38;7.97;;;;;;;-5.40;75.91;101220.63;5070944;28;20764;-54
2022/01/02 12:10:14;;;;;;;28.58;10.77;;;;;;;-5.35;75.36;101214.38;5071333;28;20709;-57
2022/01/02 12:13:10;;;;;;;22.83;9.18;;;;;;;-5.30;75.36;101203.84;5072128;28;20121;-60
2022/01/02 12:15:38;;;;;;;18.70;9.50;;;;;;;-5.30;76.16;101196.91;5074919;28;20032;-59
2022/01/02 12:18:26;;;;;;;20.63;8.77;;;;;;;-5.96;75.65;101078.91;5074545;28;20041;-60
2022/01/02 12:23:42;;;;;;;22.13;9.90;;;;;;;-5.40;75.69;101181.69;5074724;28;20095;-60
2022/01/02 12:26:08;;;;;;;20.05;10.00;;;;;;;-5.45;76.75;101179.25;5075263;28;20125;-63
2022/01/02 12:28:37;;;;;;;22.85;9.65;;;;;;;-5.36;76.31;101175.50;5074156;28;20173;-57
2022/01/02 12:31:04;;;;;;;18.17;8.55;;;;;;;-5.59;76.42;101123.50;5074606;28;20036;-59
2022/01/02 12:33:30;;;;;;;19.08;9.38;;;;;;;-5.34;77.23;101156.38;5074517;28;20069;-59
2022/01/02 12:35:56;;;;;;;16.13;7.90;;;;;;;-5.39;76.38;101134.06;5074313;28;20037;-56
2022/01/02 12:38:22;;;;;;;19.90;9.15;;;;;;;-5.28;76.76;101144.91;5074551;28;20028;-55
2022/01/02 12:40:49;;;;;;;18.30;8.40;;;;;;;-5.30;76.62;101149.31;5075064;28;20032;-58
2022/01/02 12:43:23;;;;;;;10.40;7.00;;;;;;;-5.26;76.85;101152.66;5073875;28;20124;-57